Weather at Arlington Municipal Airport

Public forecast

Using degrees Fahrenheit for public forecast. Weather courtesy of forecast.io.

Current aviation weather report (METAR) for Arlington Municipal Airport

Retrieved 2020/09/30 02:53 UTC (13 minutes ago):

KGKY 300253Z AUTO 00000KT 10SM CLR 14/09 A3008 RMK AO2 SLP181 T01440089 50004

Aviation forecast (TAF) for Arlington Municipal Airport

Retrieved 2020-09-30 00:30 UTC (3 hours ago):

TAF KGKY 292329Z 3000/3024 30009KT P6SM SKC FM300200 23007KT P6SM SKC